Time;durP1;ratioP1;P1;durP2;ratioP2;P2;SDS_P1;SDS_P2;PMS_P1;PMS_P2;Temp;Humidity;BMP_temperature;BMP_pressure;BME280_temperature;BME280_humidity;BME280_pressure;Samples;Min_cycle;Max_cycle;Signal;HPM_P1;HPM_P2
2023/01/24 00:00:09;;;;;;;1.93;1.83;;;3.60;99.90;;;;;;5056268;28;20305;-88
2023/01/24 00:02:35;;;;;;;2.10;1.83;;;3.60;99.90;;;;;;5059123;28;20234;-87
2023/01/24 00:05:01;;;;;;;2.63;1.33;;;3.60;99.90;;;;;;5039933;28;20333;-87
2023/01/24 00:07:27;;;;;;;1.70;1.60;;;3.60;99.90;;;;;;5024374;28;20233;-87
2023/01/24 00:09:53;;;;;;;6.30;2.90;;;3.60;99.90;;;;;;5041198;28;20556;-87
2023/01/24 00:12:18;;;;;;;3.07;2.77;;;3.60;99.90;;;;;;5025749;28;20248;-87
2023/01/24 00:14:44;;;;;;;2.63;2.43;;;3.60;99.90;;;;;;5042110;28;20218;-85
2023/01/24 00:17:10;;;;;;;1.27;1.27;;;3.60;99.90;;;;;;5057334;28;20206;-86
2023/01/24 00:19:36;;;;;;;4.50;3.17;;;3.60;99.90;;;;;;5042224;28;20206;-87
2023/01/24 00:22:06;;;;;;;1.87;1.77;;;3.60;99.90;;;;;;5040845;28;20194;-88
2023/01/24 00:24:34;;;;;;;3.10;2.87;;;3.60;99.90;;;;;;5041344;28;20289;-88
2023/01/24 00:27:02;;;;;;;3.40;2.83;;;3.60;99.90;;;;;;5054290;28;20287;-87
2023/01/24 00:29:28;;;;;;;2.53;2.33;;;3.70;99.90;;;;;;5038755;28;20686;-87
2023/01/24 00:31:54;;;;;;;3.53;3.20;;;3.70;99.90;;;;;;5040190;28;20217;-87
2023/01/24 00:34:20;;;;;;;1.80;1.53;;;3.80;99.90;;;;;;5041390;28;20231;-88
2023/01/24 00:36:45;;;;;;;3.97;1.97;;;3.80;99.90;;;;;;5041091;28;20188;-87
2023/01/24 00:39:11;;;;;;;2.50;2.23;;;3.70;99.90;;;;;;5043105;28;20307;-87
2023/01/24 00:41:37;;;;;;;2.63;2.50;;;3.80;99.90;;;;;;5040276;28;20910;-87
2023/01/24 00:44:03;;;;;;;4.07;1.57;;;3.80;99.90;;;;;;5041345;28;20225;-87
2023/01/24 00:46:29;;;;;;;3.43;1.70;;;3.80;99.90;;;;;;5040841;28;20205;-87
2023/01/24 00:48:55;;;;;;;1.23;0.93;;;3.80;99.90;;;;;;5024030;28;20231;-88
2023/01/24 00:51:21;;;;;;;1.43;1.37;;;3.80;99.90;;;;;;5040112;28;20244;-87
2023/01/24 00:53:47;;;;;;;3.10;1.77;;;3.80;99.90;;;;;;5044418;28;20225;-87
2023/01/24 00:56:12;;;;;;;2.93;1.83;;;3.80;99.90;;;;;;5039858;28;20574;-87
2023/01/24 00:58:38;;;;;;;0.97;0.73;;;3.80;99.90;;;;;;5057028;28;20264;-88
2023/01/24 01:01:04;;;;;;;1.97;1.60;;;3.80;99.90;;;;;;5040989;28;20193;-87
2023/01/24 01:03:30;;;;;;;3.03;2.83;;;3.90;99.90;;;;;;5040760;28;20187;-87
2023/01/24 01:06:02;;;;;;;2.47;2.27;;;3.90;99.90;;;;;;5041543;28;20645;-87
2023/01/24 01:08:28;;;;;;;2.13;1.60;;;3.90;99.90;;;;;;5041723;28;20230;-88
2023/01/24 01:10:54;;;;;;;2.90;2.63;;;3.90;99.90;;;;;;5042742;28;20808;-88
2023/01/24 01:13:23;;;;;;;4.70;2.90;;;3.80;99.90;;;;;;5042563;28;20324;-88
2023/01/24 01:15:48;;;;;;;3.63;3.40;;;3.80;99.90;;;;;;5039785;28;20278;-88
2023/01/24 01:18:14;;;;;;;1.53;1.43;;;3.80;99.90;;;;;;5040203;28;20296;-88
2023/01/24 01:20:40;;;;;;;2.10;1.97;;;3.90;99.90;;;;;;5039466;28;20222;-87
2023/01/24 01:23:06;;;;;;;8.23;1.53;;;3.90;99.90;;;;;;5023117;28;20724;-88
2023/01/24 01:25:31;;;;;;;3.43;3.13;;;3.90;99.90;;;;;;5042066;28;20240;-87
2023/01/24 01:27:57;;;;;;;4.40;2.10;;;3.90;99.90;;;;;;5040110;28;20213;-88
2023/01/24 01:30:23;;;;;;;1.90;1.17;;;3.90;99.90;;;;;;5039398;28;20366;-87
2023/01/24 01:32:49;;;;;;;2.70;2.57;;;3.90;99.90;;;;;;5042118;28;21131;-86
2023/01/24 01:35:15;;;;;;;3.07;2.13;;;3.80;99.90;;;;;;5040428;28;20242;-86
2023/01/24 01:37:41;;;;;;;2.30;2.10;;;3.80;99.90;;;;;;5022320;28;20221;-88
2023/01/24 01:40:07;;;;;;;1.40;1.37;;;3.80;99.90;;;;;;5040809;28;20194;-88
2023/01/24 01:42:51;;;;;;;3.07;2.87;;;3.70;99.90;;;;;;5041100;28;20646;-88
2023/01/24 01:45:44;;;;;;;4.13;2.83;;;3.70;99.90;;;;;;5040590;28;20304;-87
2023/01/24 01:48:20;;;;;;;1.67;1.57;;;3.70;99.90;;;;;;5038152;28;20247;-88
2023/01/24 01:51:11;;;;;;;4.00;2.80;;;3.70;99.90;;;;;;5054586;28;20221;-87
2023/01/24 01:53:49;;;;;;;4.63;1.37;;;3.60;99.90;;;;;;5053825;28;20284;-87
2023/01/24 01:56:29;;;;;;;2.93;1.57;;;3.60;99.90;;;;;;5041038;28;20221;-86
2023/01/24 01:58:58;;;;;;;2.30;2.20;;;3.70;99.90;;;;;;5057475;28;20206;-87
2023/01/24 02:01:25;;;;;;;2.80;2.60;;;3.70;99.90;;;;;;5058184;28;20210;-87
2023/01/24 02:03:58;;;;;;;1.50;1.40;;;3.70;99.90;;;;;;5039803;28;20237;-87
2023/01/24 02:06:47;;;;;;;2.17;2.07;;;3.70;99.90;;;;;;5040696;28;20211;-87
2023/01/24 02:09:16;;;;;;;7.60;3.27;;;3.70;99.90;;;;;;5056874;28;20233;-87
2023/01/24 02:11:43;;;;;;;3.80;3.37;;;3.70;99.90;;;;;;5039267;28;20248;-86
2023/01/24 02:17:01;;;;;;;2.70;2.37;;;3.60;99.90;;;;;;5041092;28;20230;-87
2023/01/24 02:19:42;;;;;;;2.27;2.17;;;3.60;99.90;;;;;;5041386;28;20214;-88
2023/01/24 02:22:36;;;;;;;3.07;2.37;;;3.60;99.90;;;;;;5056375;28;20191;-86
2023/01/24 02:25:15;;;;;;;2.43;2.20;;;3.60;99.90;;;;;;5048737;28;20209;-87
2023/01/24 02:27:41;;;;;;;1.10;0.93;;;3.60;99.90;;;;;;5041400;28;20609;-88
2023/01/24 02:30:09;;;;;;;1.47;1.47;;;3.70;99.90;;;;;;5037853;28;20558;-87
2023/01/24 02:32:35;;;;;;;2.63;2.23;;;3.60;99.90;;;;;;5023040;28;20209;-86
2023/01/24 02:35:05;;;;;;;2.30;1.93;;;3.60;99.90;;;;;;5057374;28;20300;-87
2023/01/24 02:37:35;;;;;;;2.10;2.00;;;3.60;99.90;;;;;;5041273;28;20566;-87
2023/01/24 02:40:10;;;;;;;3.17;2.97;;;3.60;99.90;;;;;;5041724;28;20550;-87
2023/01/24 02:42:38;;;;;;;2.07;1.83;;;3.60;99.90;;;;;;5037369;28;20186;-88
2023/01/24 02:45:26;;;;;;;3.77;1.93;;;3.60;99.90;;;;;;5055937;28;20631;-88
2023/01/24 02:47:53;;;;;;;2.67;1.97;;;3.60;99.90;;;;;;5038726;28;20292;-88
2023/01/24 02:50:22;;;;;;;5.43;2.43;;;3.60;99.90;;;;;;5039849;28;20699;-87
2023/01/24 02:58:05;;;;;;;3.83;2.47;;;3.60;99.90;;;;;;5040713;28;20727;-88
2023/01/24 02:58:20;;;;;;;2.93;2.73;;;3.60;99.90;;;;;;5038857;28;20726;-87
2023/01/24 03:00:46;;;;;;;6.40;2.93;;;3.60;99.90;;;;;;5041220;28;20218;-88
2023/01/24 03:03:11;;;;;;;2.43;1.90;;;3.60;99.90;;;;;;5022656;28;20210;-88
2023/01/24 03:05:56;;;;;;;1.23;1.23;;;3.60;99.90;;;;;;5040411;28;20761;-87
2023/01/24 03:08:24;;;;;;;2.87;2.67;;;3.60;99.90;;;;;;5043912;28;20221;-88
2023/01/24 03:10:53;;;;;;;3.30;3.10;;;3.70;99.90;;;;;;5056137;28;20309;-87
2023/01/24 03:35:15;;;;;;;3.20;1.97;;;3.60;99.90;;;;;;5043182;28;20358;-87
2023/01/24 03:40:28;;;;;;;3.93;3.30;;;3.60;99.90;;;;;;5041517;28;20295;-86
2023/01/24 03:42:54;;;;;;;2.70;2.53;;;3.70;99.90;;;;;;5044155;28;20229;-87
2023/01/24 03:45:25;;;;;;;6.47;3.90;;;3.70;99.90;;;;;;5042835;28;20222;-88
2023/01/24 03:47:56;;;;;;;3.40;2.97;;;3.70;99.90;;;;;;5041813;28;20233;-88
2023/01/24 03:53:20;;;;;;;2.57;2.40;;;3.70;99.90;;;;;;5042668;28;20301;-87
2023/01/24 03:55:46;;;;;;;1.50;1.50;;;3.70;99.90;;;;;;5042257;28;20256;-87
2023/01/24 03:58:12;;;;;;;3.50;3.20;;;3.80;99.90;;;;;;5041946;28;20231;-88
2023/01/24 04:00:39;;;;;;;2.87;2.67;;;3.80;99.90;;;;;;5042734;28;20703;-88
2023/01/24 04:03:05;;;;;;;2.40;1.90;;;3.80;99.90;;;;;;5042701;28;20305;-88
2023/01/24 04:05:33;;;;;;;2.67;2.43;;;3.80;99.90;;;;;;5025256;28;20229;-88
2023/01/24 04:08:04;;;;;;;5.50;3.13;;;3.80;99.90;;;;;;5042490;28;20257;-88
2023/01/24 04:10:30;;;;;;;1.83;1.73;;;3.80;99.90;;;;;;5042230;28;20215;-88
2023/01/24 04:12:56;;;;;;;3.30;1.50;;;3.70;99.90;;;;;;5026921;28;21211;-88
2023/01/24 04:15:28;;;;;;;2.87;1.97;;;3.80;99.90;;;;;;5042547;28;20226;-88
2023/01/24 04:17:58;;;;;;;1.67;1.53;;;3.80;99.90;;;;;;5059116;28;20229;-88
2023/01/24 04:20:26;;;;;;;1.50;1.37;;;3.80;99.90;;;;;;5043464;28;20336;-88
2023/01/24 04:22:51;;;;;;;1.13;1.13;;;3.80;99.90;;;;;;5026130;28;20221;-88
2023/01/24 04:25:18;;;;;;;2.33;1.83;;;3.80;99.90;;;;;;5040475;28;20240;-88
2023/01/24 04:27:44;;;;;;;1.63;1.53;;;3.80;99.90;;;;;;5042722;28;20225;-88
2023/01/24 04:30:12;;;;;;;1.40;1.30;;;3.80;99.90;;;;;;5042242;28;20278;-88
2023/01/24 04:32:38;;;;;;;2.03;1.97;;;3.80;99.90;;;;;;5056479;28;20292;-86
2023/01/24 04:35:05;;;;;;;2.63;2.43;;;3.80;99.90;;;;;;5041452;28;20218;-87
2023/01/24 04:37:32;;;;;;;5.13;1.70;;;3.70;99.90;;;;;;5031877;28;20673;-87
2023/01/24 04:39:58;;;;;;;3.43;2.87;;;3.70;99.90;;;;;;5042070;28;20198;-88
2023/01/24 04:42:24;;;;;;;4.17;2.20;;;3.70;99.90;;;;;;5006883;28;20227;-88
2023/01/24 04:44:50;;;;;;;2.40;2.27;;;3.70;99.90;;;;;;5020342;28;20222;-88
2023/01/24 04:47:16;;;;;;;2.90;2.33;;;3.80;99.90;;;;;;5041159;28;20216;-88
2023/01/24 04:49:42;;;;;;;1.50;1.40;;;3.80;99.90;;;;;;5024370;28;21231;-88
2023/01/24 04:52:13;;;;;;;2.20;2.10;;;3.80;99.90;;;;;;5024240;28;20286;-88
2023/01/24 04:54:40;;;;;;;2.60;1.37;;;3.80;99.90;;;;;;5044339;28;20186;-88
2023/01/24 04:57:06;;;;;;;2.17;2.07;;;3.80;99.90;;;;;;5024420;28;20284;-87
2023/01/24 04:59:32;;;;;;;2.50;2.20;;;3.70;99.90;;;;;;5024084;28;20305;-88
2023/01/24 05:01:57;;;;;;;2.53;2.17;;;3.70;99.90;;;;;;5042877;28;20278;-87
2023/01/24 05:04:23;;;;;;;1.57;1.40;;;3.70;99.90;;;;;;5023760;28;20770;-88
2023/01/24 05:06:49;;;;;;;1.77;1.67;;;3.70;99.90;;;;;;5024341;28;20274;-88
2023/01/24 05:09:18;;;;;;;1.60;1.50;;;3.70;99.90;;;;;;5024926;28;20236;-88
2023/01/24 05:11:43;;;;;;;1.77;1.67;;;3.70;99.90;;;;;;5040787;28;20306;-87
2023/01/24 05:14:09;;;;;;;2.27;2.07;;;3.60;99.90;;;;;;5040997;28;20245;-88
2023/01/24 05:16:36;;;;;;;3.17;2.03;;;3.60;99.90;;;;;;5039570;28;20205;-87
2023/01/24 05:19:02;;;;;;;2.03;1.80;;;3.60;99.90;;;;;;5057708;28;20255;-86
2023/01/24 05:21:28;;;;;;;2.13;2.00;;;3.60;99.90;;;;;;5042898;28;20197;-87
2023/01/24 05:23:54;;;;;;;3.10;2.83;;;3.60;99.90;;;;;;5024633;28;20252;-89
2023/01/24 05:26:22;;;;;;;2.50;2.30;;;3.60;99.90;;;;;;5041937;28;20300;-90
2023/01/24 05:28:49;;;;;;;2.17;2.07;;;3.60;99.90;;;;;;5043674;28;20356;-89
2023/01/24 05:31:15;;;;;;;5.83;1.73;;;3.60;99.90;;;;;;5032889;28;20191;-89
2023/01/24 05:33:41;;;;;;;2.47;2.23;;;3.60;99.90;;;;;;5023761;28;20194;-91
2023/01/24 05:36:13;;;;;;;4.43;1.37;;;3.60;99.90;;;;;;5038601;28;20215;-91
2023/01/24 05:38:39;;;;;;;3.17;2.00;;;3.50;99.90;;;;;;5042789;28;20225;-90
2023/01/24 05:41:07;;;;;;;4.43;2.47;;;3.50;99.90;;;;;;5039878;28;20214;-93
2023/01/24 05:43:34;;;;;;;1.73;1.60;;;3.50;99.90;;;;;;5055582;28;20214;-90
2023/01/24 05:46:02;;;;;;;1.83;1.73;;;3.50;99.90;;;;;;5037231;28;20191;-88
2023/01/24 05:48:28;;;;;;;2.60;2.40;;;3.50;99.90;;;;;;5056561;28;20236;-88
2023/01/24 05:51:03;;;;;;;2.17;2.07;;;3.60;99.90;;;;;;5055806;28;20678;-88
2023/01/24 05:53:31;;;;;;;2.60;2.40;;;3.60;99.90;;;;;;5055543;28;20744;-88
2023/01/24 05:55:59;;;;;;;4.23;1.83;;;3.50;99.90;;;;;;5038701;28;20727;-88
2023/01/24 05:58:26;;;;;;;4.87;1.93;;;3.60;99.90;;;;;;5056443;28;20229;-88
2023/01/24 06:00:54;;;;;;;5.90;2.73;;;3.60;99.90;;;;;;5056467;28;20185;-87
2023/01/24 06:03:21;;;;;;;3.10;2.83;;;3.60;99.90;;;;;;5039999;28;20217;-88
2023/01/24 06:05:49;;;;;;;2.97;2.77;;;3.60;99.90;;;;;;5057445;28;20225;-88
2023/01/24 06:08:15;;;;;;;5.67;2.47;;;3.50;99.90;;;;;;5038358;28;20249;-88
2023/01/24 06:10:41;;;;;;;2.47;2.27;;;3.50;99.90;;;;;;5024421;28;20249;-89
2023/01/24 06:13:07;;;;;;;2.10;2.00;;;3.50;99.90;;;;;;5038391;28;20186;-88
2023/01/24 06:15:35;;;;;;;2.70;1.60;;;3.60;99.90;;;;;;5039739;28;20175;-88
2023/01/24 06:18:00;;;;;;;2.07;1.97;;;3.50;99.90;;;;;;5055683;28;20367;-88
2023/01/24 06:20:27;;;;;;;3.07;2.53;;;3.60;99.90;;;;;;5041550;28;20237;-88
2023/01/24 06:22:56;;;;;;;3.10;2.53;;;3.50;99.90;;;;;;5021707;28;20721;-88
2023/01/24 06:25:27;;;;;;;3.40;2.77;;;3.50;99.90;;;;;;5038520;28;20787;-88
2023/01/24 06:27:55;;;;;;;4.83;1.73;;;3.50;99.90;;;;;;5037788;28;20703;-89
2023/01/24 06:30:21;;;;;;;3.67;2.83;;;3.50;99.90;;;;;;5039091;28;20839;-88
2023/01/24 06:33:02;;;;;;;3.07;2.87;;;3.60;99.90;;;;;;5039207;28;20215;-88
2023/01/24 06:35:49;;;;;;;2.80;2.60;;;3.40;99.90;;;;;;5057708;28;20274;-88
2023/01/24 06:38:20;;;;;;;4.97;1.53;;;3.40;99.90;;;;;;5056141;28;20218;-88
2023/01/24 06:40:46;;;;;;;1.60;1.50;;;3.40;99.90;;;;;;5055916;28;20248;-88
2023/01/24 06:43:12;;;;;;;1.80;1.70;;;3.50;99.90;;;;;;5054917;28;20186;-87
2023/01/24 06:45:38;;;;;;;2.30;2.10;;;3.50;99.90;;;;;;5040536;28;20704;-88
2023/01/24 06:48:04;;;;;;;2.00;1.90;;;3.50;99.90;;;;;;5044138;28;20217;-88
2023/01/24 06:50:32;;;;;;;2.63;2.53;;;3.50;99.90;;;;;;5026197;28;20789;-87
2023/01/24 06:52:58;;;;;;;3.00;2.60;;;3.50;99.90;;;;;;5044594;28;20218;-87
2023/01/24 06:55:24;;;;;;;2.57;2.40;;;3.60;99.90;;;;;;5042485;28;20296;-87
2023/01/24 06:58:01;;;;;;;2.23;2.10;;;3.50;99.90;;;;;;5043183;28;20565;-88
2023/01/24 07:00:30;;;;;;;4.37;2.10;;;3.50;99.90;;;;;;5027054;28;20688;-88
2023/01/24 07:03:00;;;;;;;5.80;2.57;;;3.50;99.90;;;;;;5027174;28;20218;-88
2023/01/24 07:05:29;;;;;;;1.80;1.70;;;3.50;99.90;;;;;;5041358;28;20217;-88
2023/01/24 07:07:55;;;;;;;2.53;2.30;;;3.50;99.90;;;;;;5041803;28;20637;-89
2023/01/24 07:10:21;;;;;;;2.80;2.23;;;3.50;99.90;;;;;;5056405;28;20248;-89
2023/01/24 07:12:47;;;;;;;2.63;2.23;;;3.50;99.90;;;;;;5025912;28;20197;-90
2023/01/24 07:15:13;;;;;;;4.40;3.37;;;3.50;99.90;;;;;;5045344;28;20666;-88
2023/01/24 07:17:39;;;;;;;5.90;2.27;;;3.50;99.90;;;;;;5043690;28;20304;-89
2023/01/24 07:20:06;;;;;;;1.77;1.67;;;3.50;99.90;;;;;;5056256;28;20313;-88
2023/01/24 07:22:32;;;;;;;5.47;4.00;;;3.50;99.90;;;;;;5056471;28;20226;-87
2023/01/24 07:25:01;;;;;;;2.97;1.83;;;3.60;99.90;;;;;;5041846;28;20847;-88
2023/01/24 07:27:27;;;;;;;3.10;2.90;;;3.50;99.90;;;;;;5019365;28;20223;-89
2023/01/24 07:29:53;;;;;;;3.43;2.23;;;3.50;99.90;;;;;;5037590;28;20260;-88
2023/01/24 07:32:18;;;;;;;3.47;2.90;;;3.40;99.90;;;;;;5037776;28;20206;-88
2023/01/24 07:34:44;;;;;;;2.00;1.87;;;3.50;99.90;;;;;;5037887;28;20571;-88
2023/01/24 07:37:10;;;;;;;1.97;1.80;;;3.50;99.90;;;;;;5021732;28;20195;-89
2023/01/24 07:39:38;;;;;;;3.77;2.87;;;3.40;99.90;;;;;;5037466;28;20182;-89
2023/01/24 07:42:04;;;;;;;2.70;2.50;;;3.40;99.90;;;;;;5036176;28;20225;-88
2023/01/24 07:44:30;;;;;;;1.33;1.27;;;3.30;99.90;;;;;;5051880;28;20215;-88
2023/01/24 07:46:55;;;;;;;2.67;2.57;;;3.20;99.90;;;;;;5023698;28;20282;-87
2023/01/24 07:49:21;;;;;;;3.10;2.93;;;3.30;99.90;;;;;;5042480;28;20225;-87
2023/01/24 07:51:48;;;;;;;3.83;3.60;;;3.30;99.90;;;;;;5042581;28;20667;-88
2023/01/24 07:54:14;;;;;;;3.37;1.83;;;3.30;99.90;;;;;;5040988;28;20221;-88
2023/01/24 07:56:40;;;;;;;3.43;3.23;;;3.20;99.90;;;;;;5058963;28;20577;-88
2023/01/24 07:59:06;;;;;;;2.33;2.23;;;3.30;99.90;;;;;;5043882;28;20225;-87
2023/01/24 08:01:31;;;;;;;2.00;1.87;;;3.20;99.90;;;;;;5029232;28;20226;-88
2023/01/24 08:03:58;;;;;;;5.33;2.63;;;3.30;99.90;;;;;;5022617;28;20185;-88
2023/01/24 08:06:25;;;;;;;4.40;4.13;;;3.30;99.90;;;;;;5020162;28;20576;-89
2023/01/24 08:08:51;;;;;;;3.50;3.23;;;3.20;99.90;;;;;;5033643;28;20218;-88
2023/01/24 08:11:17;;;;;;;4.23;2.67;;;3.20;99.90;;;;;;5026854;28;20206;-88
2023/01/24 08:13:46;;;;;;;4.00;3.77;;;3.20;99.90;;;;;;5039736;28;20225;-87
2023/01/24 08:16:14;;;;;;;5.77;4.03;;;3.20;99.90;;;;;;5058192;28;20179;-88
2023/01/24 08:18:40;;;;;;;4.37;4.07;;;3.30;99.90;;;;;;5043558;28;20587;-88
2023/01/24 08:21:06;;;;;;;1.70;1.50;;;3.20;99.90;;;;;;5040416;28;20218;-88
2023/01/24 08:23:33;;;;;;;7.97;3.77;;;3.20;99.90;;;;;;5058956;28;20215;-88
2023/01/24 08:26:00;;;;;;;3.40;3.20;;;3.20;99.90;;;;;;5058384;28;20310;-88
2023/01/24 08:28:26;;;;;;;2.73;2.50;;;3.20;99.90;;;;;;5057301;28;20221;-88
2023/01/24 08:30:53;;;;;;;2.90;2.73;;;3.20;99.90;;;;;;5057460;28;20209;-87
2023/01/24 08:33:24;;;;;;;4.13;3.77;;;3.30;99.90;;;;;;5057032;28;20210;-87
2023/01/24 08:35:49;;;;;;;5.00;3.17;;;3.30;99.90;;;;;;5058451;28;20269;-87
2023/01/24 08:38:16;;;;;;;3.60;3.23;;;3.20;99.90;;;;;;5040860;28;20226;-87
2023/01/24 08:40:43;;;;;;;2.67;2.53;;;3.30;99.90;;;;;;5041055;28;20207;-88
2023/01/24 08:43:08;;;;;;;4.17;3.60;;;3.30;99.90;;;;;;5044110;28;20317;-88
2023/01/24 08:45:35;;;;;;;2.07;1.97;;;3.20;99.90;;;;;;5042622;28;20297;-89
2023/01/24 08:48:01;;;;;;;5.10;4.63;;;3.20;99.90;;;;;;5057829;28;20226;-89
2023/01/24 08:50:27;;;;;;;2.67;2.50;;;3.30;99.90;;;;;;5042430;28;20594;-89
2023/01/24 08:52:59;;;;;;;4.27;3.97;;;3.30;99.90;;;;;;5041402;28;20216;-88
2023/01/24 08:55:28;;;;;;;4.17;3.67;;;3.30;99.90;;;;;;5042094;28;20238;-89
2023/01/24 08:58:00;;;;;;;4.03;3.73;;;3.30;99.90;;;;;;5022545;28;20198;-89
2023/01/24 09:00:25;;;;;;;2.83;2.63;;;3.30;99.90;;;;;;5022459;28;20234;-88
2023/01/24 09:02:51;;;;;;;2.50;2.30;;;3.20;99.90;;;;;;5036589;28;20787;-89
2023/01/24 09:05:17;;;;;;;3.47;3.17;;;3.30;99.90;;;;;;5043487;28;20226;-90
2023/01/24 09:07:46;;;;;;;4.40;2.67;;;3.30;99.90;;;;;;5038297;28;20237;-89
2023/01/24 09:10:12;;;;;;;3.13;2.13;;;3.30;99.90;;;;;;5025592;28;20190;-89
2023/01/24 09:12:37;;;;;;;6.27;3.27;;;3.30;99.90;;;;;;5025770;28;20193;-89
2023/01/24 09:15:07;;;;;;;6.53;3.93;;;3.30;99.90;;;;;;5025258;28;20275;-89
2023/01/24 09:17:34;;;;;;;3.23;1.97;;;3.30;99.90;;;;;;5023706;28;20219;-89
2023/01/24 09:20:00;;;;;;;3.60;3.13;;;3.40;99.90;;;;;;5039488;28;20708;-90
2023/01/24 09:22:27;;;;;;;3.90;3.60;;;3.40;99.90;;;;;;5043191;28;20221;-89
2023/01/24 09:24:53;;;;;;;4.77;2.80;;;3.40;99.90;;;;;;5041192;28;20224;-89
2023/01/24 09:27:18;;;;;;;11.03;5.10;;;3.30;99.90;;;;;;5058446;28;20249;-90
2023/01/24 09:29:47;;;;;;;2.73;2.53;;;3.30;99.90;;;;;;5040213;28;20218;-90
2023/01/24 09:32:13;;;;;;;4.93;2.87;;;3.40;99.90;;;;;;5040289;28;20558;-88
2023/01/24 09:34:46;;;;;;;3.80;3.33;;;3.40;99.90;;;;;;5024129;28;20213;-89
2023/01/24 09:37:17;;;;;;;2.97;2.50;;;3.40;99.90;;;;;;5025442;28;20220;-88
2023/01/24 09:39:43;;;;;;;4.33;2.97;;;3.30;99.90;;;;;;5041899;28;20174;-88
2023/01/24 09:42:12;;;;;;;4.63;3.17;;;3.30;99.90;;;;;;5055502;28;21178;-88
2023/01/24 09:45:03;;;;;;;4.77;2.97;;;3.30;99.90;;;;;;5056597;28;20222;-87
2023/01/24 09:47:40;;;;;;;5.00;4.50;;;3.20;99.90;;;;;;5055815;28;20690;-87
2023/01/24 09:50:19;;;;;;;3.13;2.17;;;3.20;99.90;;;;;;5057233;28;20237;-88
2023/01/24 09:52:52;;;;;;;5.13;3.53;;;3.20;99.90;;;;;;5058029;28;20229;-88
2023/01/24 09:55:25;;;;;;;4.17;2.37;;;3.20;99.90;;;;;;5056152;28;20267;-88
2023/01/24 09:58:04;;;;;;;2.87;2.67;;;3.20;99.90;;;;;;5056051;28;20655;-88
2023/01/24 10:00:33;;;;;;;2.50;2.30;;;3.30;99.90;;;;;;5040888;28;20226;-87
2023/01/24 10:03:02;;;;;;;3.50;3.20;;;3.20;99.90;;;;;;5056349;28;20209;-90
2023/01/24 10:05:38;;;;;;;4.07;3.67;;;3.30;99.90;;;;;;5057340;28;20221;-88
2023/01/24 10:08:25;;;;;;;2.17;2.07;;;3.30;99.90;;;;;;5040123;28;20236;-86
2023/01/24 10:11:34;;;;;;;8.03;4.00;;;3.30;99.90;;;;;;5056815;28;20610;-88
2023/01/24 10:14:27;;;;;;;2.67;2.57;;;3.30;99.90;;;;;;5028989;28;20286;-87
2023/01/24 10:17:12;;;;;;;2.40;2.17;;;3.30;99.90;;;;;;5042764;28;20557;-88
2023/01/24 10:20:16;;;;;;;6.13;2.63;;;3.20;99.90;;;;;;5040110;28;20201;-88
2023/01/24 10:23:03;;;;;;;2.00;1.90;;;3.20;99.90;;;;;;5058640;28;20212;-87
2023/01/24 10:25:34;;;;;;;5.97;2.37;;;3.20;99.90;;;;;;5044628;28;20198;-87
2023/01/24 10:28:02;;;;;;;3.93;3.63;;;3.20;99.90;;;;;;5059411;28;20205;-88
2023/01/24 10:30:47;;;;;;;3.47;3.27;;;3.30;99.90;;;;;;5057667;28;20171;-87
2023/01/24 10:33:18;;;;;;;3.27;3.10;;;3.30;99.90;;;;;;5043868;28;20217;-87
2023/01/24 10:35:54;;;;;;;4.57;3.57;;;3.30;99.90;;;;;;5017144;28;20301;-88
2023/01/24 10:38:20;;;;;;;4.53;4.20;;;3.30;99.90;;;;;;5044435;28;20273;-88
2023/01/24 10:40:50;;;;;;;3.40;3.10;;;3.30;99.90;;;;;;5040660;28;20292;-88
2023/01/24 10:43:17;;;;;;;2.77;2.47;;;3.30;99.90;;;;;;5059970;28;20194;-87
2023/01/24 10:45:49;;;;;;;3.83;3.57;;;3.30;99.90;;;;;;5043510;28;20646;-87
2023/01/24 10:48:44;;;;;;;5.53;3.80;;;3.30;99.90;;;;;;5043326;28;20257;-87
2023/01/24 10:51:11;;;;;;;1.40;1.37;;;3.40;99.90;;;;;;5040890;28;20736;-87
2023/01/24 10:53:37;;;;;;;1.80;1.70;;;3.30;99.90;;;;;;5056266;28;20683;-88
2023/01/24 10:56:04;;;;;;;3.17;2.50;;;3.30;99.90;;;;;;5039989;28;20206;-87
2023/01/24 10:58:33;;;;;;;3.00;2.80;;;3.30;99.90;;;;;;5059118;28;21164;-87
2023/01/24 11:01:07;;;;;;;7.53;3.90;;;3.20;99.90;;;;;;5059176;28;20655;-87
2023/01/24 11:03:38;;;;;;;3.07;1.57;;;3.30;99.90;;;;;;5060766;28;20186;-87
2023/01/24 11:06:04;;;;;;;4.50;3.93;;;3.30;99.90;;;;;;5041916;28;20301;-87
2023/01/24 11:08:37;;;;;;;3.33;3.03;;;3.40;99.90;;;;;;5026231;28;20226;-86
2023/01/24 11:11:20;;;;;;;2.80;2.53;;;3.40;99.90;;;;;;5042605;28;20245;-87
2023/01/24 11:13:53;;;;;;;5.13;4.33;;;3.30;99.90;;;;;;5059111;28;20239;-87
2023/01/24 11:16:21;;;;;;;3.50;3.20;;;3.40;99.90;;;;;;5058875;28;20217;-88
2023/01/24 11:18:54;;;;;;;4.37;2.67;;;3.40;99.90;;;;;;5041971;28;20214;-88
2023/01/24 11:21:21;;;;;;;3.97;2.87;;;3.40;99.90;;;;;;5059485;28;20297;-88
2023/01/24 11:24:16;;;;;;;3.13;2.83;;;3.50;99.90;;;;;;5042548;28;20572;-88
2023/01/24 11:27:17;;;;;;;1.53;1.47;;;3.40;99.90;;;;;;5057470;28;20321;-87
2023/01/24 11:29:43;;;;;;;3.10;2.70;;;3.40;99.90;;;;;;5050513;28;20226;-88
2023/01/24 11:32:39;;;;;;;2.43;2.33;;;3.40;99.90;;;;;;5042753;28;20224;-88
2023/01/24 11:35:10;;;;;;;6.53;3.97;;;3.40;99.90;;;;;;5059428;28;20259;-88
2023/01/24 11:38:03;;;;;;;5.53;3.53;;;3.40;99.90;;;;;;5041710;28;20237;-88
2023/01/24 11:40:40;;;;;;;4.60;4.30;;;3.40;99.90;;;;;;5058369;28;20622;-87
2023/01/24 11:43:49;;;;;;;3.80;3.50;;;3.30;99.90;;;;;;5040595;28;20286;-87
2023/01/24 11:46:39;;;;;;;3.27;2.80;;;3.40;99.90;;;;;;5010407;28;20206;-88
2023/01/24 11:49:52;;;;;;;2.73;2.63;;;3.40;99.90;;;;;;5057230;28;20215;-88
2023/01/24 11:52:47;;;;;;;2.67;2.47;;;3.50;99.90;;;;;;5041358;28;20185;-87
2023/01/24 11:55:26;;;;;;;6.17;2.73;;;3.40;99.90;;;;;;5058184;28;20285;-87
2023/01/24 11:58:02;;;;;;;1.67;1.40;;;3.40;99.90;;;;;;5060948;28;20181;-87
2023/01/24 12:00:45;;;;;;;3.23;3.03;;;3.40;99.90;;;;;;5042694;28;20210;-87
2023/01/24 12:03:29;;;;;;;3.13;2.87;;;3.40;99.90;;;;;;5059038;28;20646;-87
2023/01/24 12:06:17;;;;;;;2.93;2.67;;;3.50;99.90;;;;;;5042537;28;20225;-87
2023/01/24 12:08:57;;;;;;;4.47;3.93;;;3.40;99.90;;;;;;5040802;28;20702;-86
2023/01/24 12:12:08;;;;;;;2.70;2.57;;;3.40;99.90;;;;;;5057670;28;20744;-87
2023/01/24 12:14:52;;;;;;;2.53;2.17;;;3.30;99.90;;;;;;5020694;28;20250;-87
2023/01/24 12:17:53;;;;;;;3.33;3.07;;;3.30;99.90;;;;;;5036420;28;20222;-88
2023/01/24 12:20:56;;;;;;;8.87;3.13;;;3.30;99.90;;;;;;5041567;28;20229;-87
2023/01/24 12:23:54;;;;;;;2.57;2.23;;;3.20;99.90;;;;;;5058553;28;20588;-86
2023/01/24 12:26:23;;;;;;;3.70;3.20;;;3.20;99.90;;;;;;5041669;28;20218;-87
2023/01/24 12:29:03;;;;;;;3.70;2.80;;;3.20;99.90;;;;;;5057208;28;20230;-86
2023/01/24 12:31:57;;;;;;;2.77;2.20;;;3.20;99.90;;;;;;5058798;28;20211;-87
2023/01/24 12:34:26;;;;;;;1.20;1.17;;;3.30;99.90;;;;;;5044188;28;20253;-87
2023/01/24 12:37:02;;;;;;;3.80;3.07;;;3.30;99.90;;;;;;5058566;28;20201;-87
2023/01/24 12:39:37;;;;;;;2.93;2.73;;;3.30;99.90;;;;;;5014859;28;20709;-87
2023/01/24 12:42:18;;;;;;;4.20;3.50;;;3.30;99.90;;;;;;5041067;28;20681;-88
2023/01/24 12:44:57;;;;;;;3.73;3.43;;;3.30;99.90;;;;;;5057221;28;20236;-87
2023/01/24 12:47:26;;;;;;;5.57;2.73;;;3.40;99.90;;;;;;5058199;28;20309;-87
2023/01/24 12:50:18;;;;;;;2.87;2.57;;;3.40;99.90;;;;;;5041810;28;20222;-87
2023/01/24 12:53:09;;;;;;;2.83;2.63;;;3.50;99.90;;;;;;5057591;28;20548;-89
2023/01/24 12:55:42;;;;;;;3.90;2.70;;;3.40;99.90;;;;;;5041247;28;20218;-87
2023/01/24 12:58:18;;;;;;;1.73;1.63;;;3.40;99.90;;;;;;5042312;28;20187;-88
2023/01/24 13:01:12;;;;;;;3.57;3.27;;;3.40;99.90;;;;;;5043541;28;20757;-87
2023/01/24 13:04:01;;;;;;;3.83;3.53;;;3.40;99.90;;;;;;5040961;28;20674;-88
2023/01/24 13:06:54;;;;;;;15.37;3.77;;;3.30;99.90;;;;;;5041419;28;20213;-88
2023/01/24 13:09:41;;;;;;;3.80;3.50;;;3.40;99.90;;;;;;5056263;28;20245;-88
2023/01/24 13:12:14;;;;;;;2.07;1.73;;;3.40;99.90;;;;;;5055150;28;20244;-87
2023/01/24 13:14:48;;;;;;;4.27;2.93;;;3.30;99.90;;;;;;5055863;28;20206;-87
2023/01/24 13:17:17;;;;;;;15.70;4.57;;;3.20;99.90;;;;;;5055549;28;20210;-87
2023/01/24 13:19:55;;;;;;;2.27;1.50;;;3.30;99.90;;;;;;5055943;28;20212;-87
2023/01/24 13:22:47;;;;;;;2.10;1.93;;;3.30;99.90;;;;;;5055921;28;20237;-87
2023/01/24 13:25:16;;;;;;;4.00;3.20;;;3.30;99.90;;;;;;5043015;28;20182;-86
2023/01/24 13:28:03;;;;;;;2.17;1.90;;;3.30;99.90;;;;;;5057282;28;20206;-86
2023/01/24 13:30:55;;;;;;;3.60;2.80;;;3.20;99.90;;;;;;5040505;28;20566;-87
2023/01/24 13:33:30;;;;;;;2.17;2.07;;;3.20;99.90;;;;;;5039143;28;20245;-87
2023/01/24 13:35:56;;;;;;;2.53;2.43;;;3.20;99.90;;;;;;5039389;28;20228;-87
2023/01/24 13:38:27;;;;;;;1.63;1.53;;;3.30;99.90;;;;;;5039657;28;20215;-87
2023/01/24 13:41:13;;;;;;;3.30;2.87;;;3.20;99.90;;;;;;5040076;28;20295;-87
2023/01/24 13:43:58;;;;;;;2.57;2.37;;;3.20;99.90;;;;;;5042070;28;20309;-89
2023/01/24 13:46:44;;;;;;;3.23;2.47;;;3.20;99.90;;;;;;5047217;28;20276;-89
2023/01/24 13:49:37;;;;;;;5.07;2.90;;;3.30;99.90;;;;;;5029597;28;20236;-89
2023/01/24 13:52:23;;;;;;;6.70;3.17;;;3.30;99.90;;;;;;5056895;28;20190;-88
2023/01/24 13:54:52;;;;;;;4.47;3.83;;;3.40;99.90;;;;;;5050253;28;20648;-88